createdAt,value
2023-09-23T00:02:41.366Z,10.57
2023-09-23T00:05:44.576Z,12.95
2023-09-23T00:08:46.592Z,12.85
2023-09-23T00:11:48.528Z,16.08
2023-09-23T00:14:50.195Z,10.68
2023-09-23T00:17:53.488Z,13.27
2023-09-23T00:20:55.281Z,11.65
2023-09-23T00:23:56.942Z,10.27
2023-09-23T00:26:58.641Z,11.25
2023-09-23T00:30:00.261Z,15.07
2023-09-23T00:33:03.581Z,13.20
2023-09-23T00:36:05.930Z,9.65
2023-09-23T00:39:07.607Z,12.75
2023-09-23T00:42:09.651Z,14.15
2023-09-23T00:45:11.441Z,12.15
2023-09-23T00:48:15.921Z,13.38
2023-09-23T00:51:18.339Z,13.70
2023-09-23T00:54:20.072Z,15.95
2023-09-23T00:57:21.825Z,13.52
2023-09-23T01:00:23.515Z,10.82
2023-09-23T01:03:26.686Z,11.35
2023-09-23T01:09:29.922Z,12.00
2023-09-23T01:12:31.746Z,14.55
2023-09-23T01:15:33.646Z,10.40
2023-09-23T01:18:36.679Z,13.20
2023-09-23T01:21:38.370Z,11.85
2023-09-23T01:24:41.431Z,14.68
2023-09-23T01:27:43.082Z,8.80
2023-09-23T01:30:44.772Z,12.57
2023-09-23T01:33:46.440Z,14.88
2023-09-23T01:36:48.084Z,14.52
2023-09-23T01:39:51.180Z,11.98
2023-09-23T01:42:52.862Z,13.15
2023-09-23T01:45:54.509Z,13.10
2023-09-23T01:48:56.157Z,15.10
2023-09-23T01:51:57.813Z,13.15
2023-09-23T01:55:00.853Z,11.45
2023-09-23T01:58:02.566Z,9.88
2023-09-23T02:01:04.330Z,12.38
2023-09-23T02:04:06.095Z,11.38
2023-09-23T02:07:08.142Z,14.05
2023-09-23T02:10:11.285Z,12.50
2023-09-23T02:13:12.992Z,10.98
2023-09-23T02:16:14.699Z,15.18
2023-09-23T02:19:16.386Z,14.27
2023-09-23T02:22:18.126Z,12.73
2023-09-23T02:25:21.320Z,11.85
2023-09-23T02:31:24.486Z,13.73
2023-09-23T02:34:26.189Z,14.27
2023-09-23T02:37:27.858Z,12.30
2023-09-23T02:40:30.912Z,14.00
2023-09-23T02:43:32.587Z,11.15
2023-09-23T02:46:34.317Z,13.82
2023-09-23T02:49:36.023Z,15.07
2023-09-23T02:52:38.626Z,14.05
2023-09-23T02:55:41.774Z,15.52
2023-09-23T02:58:43.621Z,11.32
2023-09-23T03:01:45.401Z,12.38
2023-09-23T03:04:47.215Z,13.82
2023-09-23T03:07:49.021Z,12.88
2023-09-23T03:10:52.063Z,16.17
2023-09-23T03:13:53.814Z,10.65
2023-09-23T03:16:55.697Z,14.23
2023-09-23T03:19:57.429Z,16.50
2023-09-23T03:22:59.141Z,11.02
2023-09-23T03:26:02.248Z,9.23
2023-09-23T03:29:04.013Z,12.23
2023-09-23T03:32:05.807Z,14.23
2023-09-23T03:35:08.089Z,14.68
2023-09-23T03:38:09.777Z,14.70
2023-09-23T03:41:13.127Z,12.98
2023-09-23T03:44:15.534Z,10.05
2023-09-23T03:47:17.452Z,15.90
2023-09-23T03:50:19.217Z,18.02
2023-09-23T03:53:21.419Z,13.48
2023-09-23T03:56:24.596Z,12.95
2023-09-23T03:59:26.435Z,12.40
2023-09-23T04:02:28.252Z,11.70
2023-09-23T04:05:32.293Z,15.25
2023-09-23T04:08:34.104Z,9.00
2023-09-23T04:11:37.114Z,10.63
2023-09-23T04:14:38.793Z,14.88
2023-09-23T04:17:40.523Z,10.88
2023-09-23T04:20:42.239Z,11.30
2023-09-23T04:23:43.920Z,16.88
2023-09-23T04:26:47.269Z,11.98
2023-09-23T04:29:48.973Z,13.82
2023-09-23T04:32:50.813Z,17.85
2023-09-23T04:35:52.538Z,11.52
2023-09-23T04:38:54.241Z,12.02
2023-09-23T04:41:57.319Z,9.63
2023-09-23T04:44:58.989Z,9.93
2023-09-23T04:48:00.691Z,14.93
2023-09-23T04:51:02.351Z,12.43
2023-09-23T04:54:04.309Z,10.70
2023-09-23T04:57:07.351Z,7.32
2023-09-23T05:00:09.927Z,12.05
2023-09-23T05:03:11.670Z,9.52
2023-09-23T05:06:13.377Z,8.95
2023-09-23T05:09:15.082Z,11.30
2023-09-23T05:12:18.198Z,10.55
2023-09-23T05:15:19.926Z,8.55
2023-09-23T05:18:21.599Z,10.55
2023-09-23T05:21:23.270Z,9.75
2023-09-23T05:24:24.968Z,10.52
2023-09-23T05:27:27.972Z,9.52
2023-09-23T05:30:29.636Z,9.30
2023-09-23T05:33:31.338Z,14.20
2023-09-23T05:36:33.037Z,7.72
2023-09-23T05:39:34.723Z,11.18
2023-09-23T05:42:37.822Z,11.23
2023-09-23T05:45:39.470Z,10.05
2023-09-23T05:48:41.147Z,11.52
2023-09-23T05:51:42.841Z,11.88
2023-09-23T05:54:44.483Z,12.38
2023-09-23T05:57:47.533Z,10.43
2023-09-23T06:03:50.940Z,7.63
2023-09-23T06:06:52.673Z,11.65
2023-09-23T06:09:54.354Z,15.35
2023-09-23T06:12:57.401Z,11.60
2023-09-23T06:16:02.638Z,15.32
2023-09-23T06:19:04.375Z,14.95
2023-09-23T06:22:06.071Z,11.55
2023-09-23T06:25:08.463Z,9.18
2023-09-23T06:28:11.560Z,10.45
2023-09-23T06:31:13.204Z,13.75
2023-09-23T06:34:14.880Z,17.63
2023-09-23T06:37:16.568Z,16.60
2023-09-23T06:40:18.268Z,9.02
2023-09-23T06:43:21.267Z,9.82
2023-09-23T06:46:23.332Z,14.32
2023-09-23T06:49:24.991Z,13.65
2023-09-23T06:52:26.653Z,11.63
2023-09-23T06:55:28.327Z,10.23
2023-09-23T06:58:31.405Z,11.82
2023-09-23T07:01:33.197Z,11.45
2023-09-23T07:04:35.044Z,8.95
2023-09-23T07:07:36.772Z,8.65
2023-09-23T07:10:39.900Z,10.65
2023-09-23T07:13:42.964Z,10.27
2023-09-23T07:16:44.624Z,10.45
2023-09-23T07:19:47.193Z,13.80
2023-09-23T07:22:49.017Z,13.85
2023-09-23T07:25:51.650Z,14.25
2023-09-23T07:28:54.818Z,11.05
2023-09-23T07:34:58.642Z,12.77
2023-09-23T07:38:00.686Z,12.60
2023-09-23T07:41:02.435Z,15.13
2023-09-23T07:44:05.975Z,12.18
2023-09-23T07:47:07.721Z,7.72
2023-09-23T07:50:10.146Z,10.70
2023-09-23T07:53:11.858Z,11.15
2023-09-23T07:56:13.621Z,9.90
2023-09-23T07:59:16.769Z,13.05
2023-09-23T08:02:18.542Z,7.70
2023-09-23T08:05:20.441Z,9.80
2023-09-23T08:08:22.228Z,8.90
2023-09-23T08:11:24.033Z,11.27
2023-09-23T08:14:27.223Z,7.75
2023-09-23T08:17:29.067Z,11.70
2023-09-23T08:20:30.931Z,9.20
2023-09-23T08:23:32.829Z,9.05
2023-09-23T08:26:34.597Z,10.93
2023-09-23T08:29:37.657Z,10.05
2023-09-23T08:32:39.759Z,10.00
2023-09-23T08:35:41.532Z,10.32
2023-09-23T08:38:43.240Z,13.43
2023-09-23T08:41:50.744Z,11.82
2023-09-23T08:44:54.670Z,10.68
2023-09-23T08:47:58.020Z,11.30
2023-09-23T08:51:01.490Z,11.65
2023-09-23T08:54:06.601Z,12.40
2023-09-23T08:57:09.343Z,15.13
2023-09-23T09:00:13.797Z,13.68
2023-09-23T09:03:15.586Z,15.50
2023-09-23T09:06:17.420Z,9.70
2023-09-23T09:09:19.432Z,8.75
2023-09-23T09:12:21.600Z,9.20
2023-09-23T09:15:24.668Z,7.70
2023-09-23T09:18:26.335Z,10.13
2023-09-23T09:21:27.988Z,9.85
2023-09-23T09:24:30.996Z,11.45
2023-09-23T09:27:32.662Z,11.73
2023-09-23T09:30:36.016Z,7.72
2023-09-23T09:33:38.758Z,6.25
2023-09-23T09:36:40.813Z,9.07
2023-09-23T09:39:50.257Z,6.43
2023-09-23T09:42:53.400Z,8.85
2023-09-23T09:45:58.616Z,9.68
2023-09-23T09:49:01.959Z,9.35
2023-09-23T09:52:05.889Z,7.15
2023-09-23T09:55:08.639Z,9.80
2023-09-23T09:58:10.470Z,6.53
2023-09-23T10:01:13.731Z,7.38
2023-09-23T10:04:19.240Z,7.93
2023-09-23T10:07:21.168Z,7.88
2023-09-23T10:10:31.794Z,7.22
2023-09-23T10:13:33.462Z,8.52
2023-09-23T10:16:36.562Z,5.15
2023-09-23T10:22:51.741Z,8.73
2023-09-23T10:25:53.738Z,4.47
2023-09-23T10:28:58.905Z,5.03
2023-09-23T10:32:10.975Z,8.00
2023-09-23T10:35:12.711Z,4.25
2023-09-23T10:38:21.640Z,5.15
2023-09-23T10:41:32.219Z,4.70
2023-09-23T10:44:34.003Z,4.53
2023-09-23T10:47:37.614Z,7.30
2023-09-23T10:50:39.521Z,3.83
2023-09-23T10:53:41.736Z,5.20
2023-09-23T10:56:43.379Z,4.05
2023-09-23T10:59:45.231Z,5.32
2023-09-23T11:02:53.637Z,4.80
2023-09-23T11:05:55.885Z,3.78
2023-09-23T11:08:57.562Z,5.03
2023-09-23T11:12:07.210Z,4.75
2023-09-23T11:15:09.506Z,3.28
2023-09-23T11:18:14.685Z,7.82
2023-09-23T11:21:16.427Z,4.22
2023-09-23T11:24:18.142Z,3.33
2023-09-23T11:27:19.854Z,6.90
2023-09-23T11:30:21.556Z,4.07
2023-09-23T11:33:24.883Z,5.40
2023-09-23T11:36:26.644Z,5.07
2023-09-23T11:39:32.216Z,7.20
2023-09-23T11:42:33.921Z,5.18
2023-09-23T11:45:35.635Z,4.43
2023-09-23T11:48:43.383Z,6.32
2023-09-23T11:51:46.458Z,5.18
2023-09-23T11:57:49.878Z,5.00
2023-09-23T12:00:51.588Z,5.72
2023-09-23T12:03:53.465Z,5.32
2023-09-23T12:06:56.674Z,5.13
2023-09-23T12:09:58.340Z,4.93
2023-09-23T12:13:00.020Z,5.53
2023-09-23T12:16:01.670Z,3.58
2023-09-23T12:19:03.570Z,3.55
2023-09-23T12:22:06.637Z,4.43
2023-09-23T12:28:10.103Z,3.55
2023-09-23T12:31:11.861Z,4.43
2023-09-23T12:34:13.577Z,5.50
2023-09-23T12:37:16.628Z,4.72
2023-09-23T12:43:19.928Z,5.20
2023-09-23T12:46:21.659Z,5.53
2023-09-23T12:49:23.317Z,5.47
2023-09-23T12:52:26.333Z,4.15
2023-09-23T12:55:28.033Z,4.28
2023-09-23T12:58:29.728Z,3.60
2023-09-23T13:01:31.459Z,3.70
2023-09-23T13:04:33.154Z,4.72
2023-09-23T13:07:36.312Z,7.03
2023-09-23T13:13:39.602Z,3.50
2023-09-23T13:16:42.058Z,4.88
2023-09-23T13:19:45.257Z,4.28
2023-09-23T13:22:48.657Z,5.45
2023-09-23T13:25:50.662Z,5.93
2023-09-23T13:28:52.916Z,5.72
2023-09-23T13:31:54.643Z,5.38
2023-09-23T13:34:56.808Z,6.40
2023-09-23T13:38:00.355Z,5.65
2023-09-23T13:41:03.417Z,9.85
2023-09-23T13:44:05.787Z,9.65
2023-09-23T13:47:07.620Z,9.25
2023-09-23T13:50:09.802Z,9.00
2023-09-23T13:53:13.632Z,10.88
2023-09-23T13:56:16.144Z,11.25
2023-09-23T13:59:17.888Z,7.10
2023-09-23T14:02:20.124Z,9.90
2023-09-23T14:05:22.790Z,8.32
2023-09-23T14:08:25.950Z,11.95
2023-09-23T14:11:28.208Z,9.60
2023-09-23T14:14:30.430Z,8.68
2023-09-23T14:17:32.731Z,8.68
2023-09-23T14:20:35.733Z,7.22
2023-09-23T14:23:38.890Z,8.10
2023-09-23T14:26:41.081Z,11.10
2023-09-23T14:29:43.761Z,7.32
2023-09-23T14:32:45.552Z,10.73
2023-09-23T14:35:48.137Z,9.40
2023-09-23T14:38:51.925Z,7.82
2023-09-23T14:41:54.667Z,9.60
2023-09-23T14:44:56.819Z,7.82
2023-09-23T14:47:59.061Z,9.13
2023-09-23T14:51:02.130Z,9.80
2023-09-23T14:54:05.621Z,10.50
2023-09-23T14:57:07.788Z,8.80
2023-09-23T15:00:10.238Z,5.90
2023-09-23T15:03:12.546Z,6.22
2023-09-23T15:06:15.281Z,6.15
2023-09-23T15:09:19.596Z,6.05
2023-09-23T15:12:21.290Z,7.15
2023-09-23T15:15:23.441Z,5.35
2023-09-23T15:18:26.354Z,5.63
2023-09-23T15:21:29.081Z,6.40
2023-09-23T15:24:32.797Z,6.07
2023-09-23T15:27:35.380Z,5.57
2023-09-23T15:30:38.036Z,5.30
2023-09-23T15:33:40.709Z,5.82
2023-09-23T15:36:43.019Z,4.88
2023-09-23T15:39:47.396Z,4.75
2023-09-23T15:42:51.450Z,4.00
2023-09-23T15:45:59.874Z,4.22
2023-09-23T15:49:02.356Z,4.80
2023-09-23T15:52:04.881Z,4.72
2023-09-23T15:55:08.419Z,4.32
2023-09-23T15:58:10.963Z,6.45
2023-09-23T16:01:12.868Z,3.78
2023-09-23T16:04:14.831Z,5.20
2023-09-23T16:07:17.535Z,6.15
2023-09-23T16:10:21.253Z,5.28
2023-09-23T16:13:23.770Z,5.03
2023-09-23T16:16:26.542Z,5.63
2023-09-23T16:19:28.833Z,5.20
2023-09-23T16:22:31.419Z,4.88
2023-09-23T16:25:34.999Z,4.63
2023-09-23T16:28:36.693Z,6.32
2023-09-23T16:31:38.836Z,4.70
2023-09-23T16:34:41.078Z,4.97
2023-09-23T16:37:43.772Z,6.15
2023-09-23T16:40:47.876Z,5.30
2023-09-23T16:43:50.051Z,5.43
2023-09-23T16:46:52.814Z,6.07
2023-09-23T16:49:55.735Z,5.30
2023-09-23T16:52:57.886Z,6.57
2023-09-23T16:56:00.946Z,9.27
2023-09-23T16:59:03.662Z,6.63
2023-09-23T17:02:05.935Z,5.88
2023-09-23T17:05:08.600Z,6.70
2023-09-23T17:08:11.468Z,5.82
2023-09-23T17:11:15.212Z,5.50
2023-09-23T17:14:17.573Z,7.40
2023-09-23T17:17:22.175Z,6.38
2023-09-23T17:20:25.247Z,7.47
2023-09-23T17:23:27.887Z,5.90
2023-09-23T17:26:32.749Z,7.70
2023-09-23T17:29:35.380Z,6.10
2023-09-23T17:32:37.227Z,6.18
2023-09-23T17:35:39.546Z,8.63
2023-09-23T17:38:42.090Z,6.25
2023-09-23T17:41:46.253Z,8.02
2023-09-23T17:44:48.923Z,7.20
2023-09-23T17:47:51.980Z,7.45
2023-09-23T17:50:56.508Z,7.72
2023-09-23T17:54:00.039Z,7.40
2023-09-23T17:57:04.606Z,7.28
2023-09-23T18:00:08.793Z,6.43
2023-09-23T18:03:11.292Z,9.13
2023-09-23T18:06:13.201Z,10.13
2023-09-23T18:09:16.026Z,8.00
2023-09-23T18:12:19.213Z,8.98
2023-09-23T18:15:21.982Z,7.03
2023-09-23T18:18:24.456Z,6.30
2023-09-23T18:21:26.646Z,8.65
2023-09-23T18:24:29.629Z,8.13
2023-09-23T18:27:37.938Z,7.13
2023-09-23T18:30:41.046Z,6.78
2023-09-23T18:33:43.581Z,7.97
2023-09-23T18:36:46.313Z,6.18
2023-09-23T18:39:51.008Z,7.90
2023-09-23T18:42:56.272Z,7.85
2023-09-23T18:45:59.138Z,8.18
2023-09-23T18:49:01.784Z,7.28
2023-09-23T18:52:04.801Z,9.45
2023-09-23T18:55:08.177Z,7.72
2023-09-23T18:58:12.364Z,7.50
2023-09-23T19:01:15.363Z,7.15
2023-09-23T19:04:17.644Z,7.75
2023-09-23T19:07:20.793Z,8.48
2023-09-23T19:10:24.043Z,6.90
2023-09-23T19:13:27.639Z,8.20
2023-09-23T19:16:30.952Z,7.88
2023-09-23T19:22:35.573Z,7.53
2023-09-23T19:25:37.724Z,9.93
2023-09-23T19:28:42.010Z,8.57
2023-09-23T19:31:44.493Z,10.55
2023-09-23T19:34:47.115Z,9.05
2023-09-23T19:37:51.485Z,7.97
2023-09-23T19:40:53.590Z,8.50
2023-09-23T19:43:58.484Z,10.32
2023-09-23T19:47:00.982Z,7.93
2023-09-23T19:50:04.135Z,8.93
2023-09-23T19:53:07.442Z,9.63
2023-09-23T19:59:13.901Z,9.00
2023-09-23T20:02:16.618Z,9.10
2023-09-23T20:05:19.848Z,12.45
2023-09-23T20:08:22.058Z,8.18
2023-09-23T20:11:24.252Z,8.10
2023-09-23T20:14:28.746Z,10.23
2023-09-23T20:17:31.491Z,8.98
2023-09-23T20:20:34.408Z,9.32
2023-09-23T20:23:37.103Z,9.45
2023-09-23T20:26:39.894Z,10.48
2023-09-23T20:29:59.790Z,8.57
2023-09-23T20:33:08.129Z,10.68
2023-09-23T20:36:10.409Z,8.77
2023-09-23T20:39:12.970Z,8.32
2023-09-23T20:42:14.990Z,8.55
2023-09-23T20:45:19.531Z,7.55
2023-09-23T20:48:21.789Z,8.45
2023-09-23T20:51:23.963Z,9.90
2023-09-23T20:54:26.136Z,8.65
2023-09-23T20:57:27.859Z,7.45
2023-09-23T21:00:31.114Z,7.75
2023-09-23T21:06:34.813Z,7.45
2023-09-23T21:09:36.601Z,5.63
2023-09-23T21:12:38.312Z,4.97
2023-09-23T21:15:41.432Z,5.25
2023-09-23T21:24:46.473Z,5.75
2023-09-23T21:27:48.127Z,6.75
2023-09-23T21:30:51.686Z,6.25
2023-09-23T21:33:53.363Z,7.22
2023-09-23T21:36:55.043Z,6.32
2023-09-23T21:39:56.690Z,6.07
2023-09-23T21:42:58.505Z,6.00
2023-09-23T21:46:01.630Z,4.97
2023-09-23T21:49:03.364Z,5.88
2023-09-23T21:52:05.040Z,6.35
2023-09-23T21:55:07.212Z,6.13
2023-09-23T21:58:08.910Z,7.05
2023-09-23T22:01:11.995Z,6.72
2023-09-23T22:04:13.840Z,6.85
2023-09-23T22:07:15.685Z,7.82
2023-09-23T22:10:17.406Z,6.25
2023-09-23T22:13:19.070Z,6.40
2023-09-23T22:16:22.167Z,6.93
2023-09-23T22:19:23.941Z,5.70
2023-09-23T22:22:25.702Z,5.90
2023-09-23T22:25:27.392Z,11.35
2023-09-23T22:28:29.048Z,5.70
2023-09-23T22:31:32.173Z,7.72
2023-09-23T22:34:33.925Z,6.85
2023-09-23T22:37:35.605Z,7.50
2023-09-23T22:40:37.316Z,10.13
2023-09-23T22:43:38.933Z,9.43
2023-09-23T22:46:42.042Z,8.27
2023-09-23T22:49:43.860Z,7.45
2023-09-23T22:52:45.562Z,9.05
2023-09-23T22:55:47.258Z,6.22
2023-09-23T22:58:48.992Z,8.10
2023-09-23T23:01:52.164Z,6.82
2023-09-23T23:04:53.847Z,7.03
2023-09-23T23:07:55.545Z,6.57
2023-09-23T23:10:57.243Z,6.45
2023-09-23T23:13:58.898Z,8.13
2023-09-23T23:17:01.955Z,8.30
2023-09-23T23:20:04.352Z,10.52
2023-09-23T23:23:06.131Z,8.00
2023-09-23T23:26:08.286Z,6.35
2023-09-23T23:29:09.983Z,7.40
2023-09-23T23:32:13.075Z,8.80
2023-09-23T23:35:15.047Z,8.40
2023-09-23T23:38:16.650Z,8.48
2023-09-23T23:41:18.346Z,7.50
2023-09-23T23:44:20.089Z,10.68
2023-09-23T23:47:23.297Z,8.35
2023-09-23T23:50:25.120Z,8.40
2023-09-23T23:53:27.074Z,8.68
2023-09-23T23:56:28.828Z,8.43
2023-09-23T23:59:30.613Z,9.60
